AAL128 KMCO-KBOS
Flight info
| Callsign | AAL128 |
|---|---|
| Flight time | 2h 17m |
| Altitude | 39000 |
| Route | FATHE4 VIYAP Q87 JROSS ELLDE Q97 PAACK JAMIE Q133 JFK ROBUC3 |
| Aircraft | B772/H-SDE2E3FGHIJ5LORVWXY/LB1D1 |
Departure
| Time | 2026-05-07 18:44 |
|---|---|
| Airport | Orlando International Airport (KMCO) |
Arrival
| Time | 2026-05-07 21:01 |
|---|---|
| Airport | Boston Logan International Airport (KBOS) |
| Time | Latitude | Longitude | Altitude | Speed | Heading |
|---|---|---|---|---|---|
| 2026-05-07 18:00 | 28.42875 | -81.31624 | 99 ft | 0 kts | 129° |
| 2026-05-07 18:36 | 28.42876 | -81.31626 | 101 ft | 2 kts | 129° |
| 2026-05-07 18:37 | 28.42892 | -81.31649 | 101 ft | 4 kts | 129° |
| 2026-05-07 18:37 | 28.42905 | -81.31667 | 101 ft | 4 kts | 144° |
| 2026-05-07 18:37 | 28.42923 | -81.31676 | 99 ft | 4 kts | 190° |
| 2026-05-07 18:37 | 28.42935 | -81.31671 | 99 ft | 5 kts | 248° |
| 2026-05-07 18:38 | 28.42942 | -81.31643 | 102 ft | 4 kts | 257° |
| 2026-05-07 18:38 | 28.42943 | -81.31633 | 99 ft | 2 kts | 257° |
| 2026-05-07 18:40 | 28.42942 | -81.31642 | 99 ft | 10 kts | 257° |
| 2026-05-07 18:40 | 28.42951 | -81.31741 | 102 ft | 13 kts | 293° |
| 2026-05-07 18:40 | 28.43001 | -81.31824 | 102 ft | 15 kts | 329° |
| 2026-05-07 18:40 | 28.43146 | -81.31841 | 103 ft | 25 kts | 358° |
| 2026-05-07 18:41 | 28.43282 | -81.31845 | 102 ft | 25 kts | 359° |
| 2026-05-07 18:41 | 28.43385 | -81.31846 | 103 ft | 25 kts | 1° |
| 2026-05-07 18:41 | 28.43558 | -81.31843 | 103 ft | 25 kts | 360° |
| 2026-05-07 18:42 | 28.43733 | -81.31844 | 105 ft | 25 kts | 360° |
| 2026-05-07 18:42 | 28.43908 | -81.31845 | 105 ft | 25 kts | 358° |
| 2026-05-07 18:42 | 28.44078 | -81.31898 | 104 ft | 25 kts | 349° |
| 2026-05-07 18:42 | 28.44252 | -81.31911 | 104 ft | 25 kts | 358° |
| 2026-05-07 18:43 | 28.44426 | -81.31910 | 104 ft | 25 kts | 1° |
| 2026-05-07 18:43 | 28.44601 | -81.31908 | 103 ft | 25 kts | 0° |
| 2026-05-07 18:43 | 28.44774 | -81.31922 | 105 ft | 25 kts | 332° |
| 2026-05-07 18:43 | 28.44823 | -81.32102 | 103 ft | 25 kts | 268° |
| 2026-05-07 18:44 | 28.44776 | -81.32222 | 104 ft | 16 kts | 202° |
| 2026-05-07 18:44 | 28.44639 | -81.32233 | 105 ft | 41 kts | 180° |
| 2026-05-07 18:44 | 28.43980 | -81.32226 | 106 ft | 146 kts | 179° |
| 2026-05-07 18:44 | 28.42771 | -81.32204 | 716 ft | 189 kts | 180° |
| 2026-05-07 18:45 | 28.41489 | -81.32148 | 2328 ft | 188 kts | 180° |
| 2026-05-07 18:45 | 28.40126 | -81.32168 | 3088 ft | 204 kts | 192° |
| 2026-05-07 18:45 | 28.38715 | -81.32783 | 3343 ft | 231 kts | 209° |
| 2026-05-07 18:45 | 28.37206 | -81.33689 | 3785 ft | 254 kts | 208° |
| 2026-05-07 18:46 | 28.35735 | -81.34821 | 4474 ft | 261 kts | 228° |
| 2026-05-07 18:46 | 28.34875 | -81.36612 | 5360 ft | 266 kts | 256° |
| 2026-05-07 18:46 | 28.34859 | -81.38710 | 6343 ft | 270 kts | 282° |
| 2026-05-07 18:46 | 28.35674 | -81.40654 | 7294 ft | 277 kts | 307° |
| 2026-05-07 18:47 | 28.37169 | -81.42076 | 8144 ft | 287 kts | 331° |
| 2026-05-07 18:47 | 28.39097 | -81.42646 | 8979 ft | 296 kts | 356° |
| 2026-05-07 18:47 | 28.41151 | -81.42338 | 9757 ft | 301 kts | 12° |
| 2026-05-07 18:47 | 28.43221 | -81.41717 | 10409 ft | 314 kts | 13° |
| 2026-05-07 18:48 | 28.45423 | -81.41005 | 10661 ft | 341 kts | 14° |
| 2026-05-07 18:48 | 28.47754 | -81.40241 | 11333 ft | 353 kts | 14° |
| 2026-05-07 18:48 | 28.50119 | -81.39470 | 12142 ft | 361 kts | 13° |
| 2026-05-07 18:48 | 28.52562 | -81.38686 | 13059 ft | 364 kts | 13° |
| 2026-05-07 18:49 | 28.55007 | -81.37911 | 13996 ft | 367 kts | 12° |
| 2026-05-07 18:49 | 28.57489 | -81.37132 | 14914 ft | 371 kts | 12° |
| 2026-05-07 18:49 | 28.59970 | -81.36356 | 15840 ft | 374 kts | 11° |
| 2026-05-07 18:49 | 28.62498 | -81.35568 | 16755 ft | 378 kts | 11° |
| 2026-05-07 18:50 | 28.65052 | -81.34772 | 17634 ft | 381 kts | 11° |
| 2026-05-07 18:50 | 28.67628 | -81.33970 | 18490 ft | 386 kts | 10° |
| 2026-05-07 18:50 | 28.70242 | -81.33156 | 19318 ft | 390 kts | 10° |
| 2026-05-07 18:50 | 28.72884 | -81.32331 | 20125 ft | 395 kts | 10° |
| 2026-05-07 18:51 | 28.75520 | -81.31509 | 20892 ft | 400 kts | 9° |
| 2026-05-07 18:51 | 28.78231 | -81.30663 | 21637 ft | 405 kts | 9° |
| 2026-05-07 18:51 | 28.80976 | -81.29818 | 22347 ft | 408 kts | 7° |
| 2026-05-07 18:51 | 28.83779 | -81.29261 | 23032 ft | 408 kts | 360° |
| 2026-05-07 18:52 | 28.86585 | -81.29061 | 23722 ft | 408 kts | 354° |
| 2026-05-07 18:52 | 28.89429 | -81.29211 | 24431 ft | 407 kts | 349° |
| 2026-05-07 18:52 | 28.92266 | -81.29491 | 25115 ft | 411 kts | 348° |
| 2026-05-07 18:52 | 28.95141 | -81.29773 | 25788 ft | 415 kts | 349° |
| 2026-05-07 18:53 | 28.97062 | -81.29948 | 26211 ft | 418 kts | 349° |
| 2026-05-07 18:53 | 28.99985 | -81.30209 | 26816 ft | 423 kts | 348° |
| 2026-05-07 18:53 | 29.02641 | -81.30491 | 27364 ft | 426 kts | 348° |
| 2026-05-07 18:53 | 29.05611 | -81.30834 | 27949 ft | 430 kts | 347° |
| 2026-05-07 18:54 | 29.08605 | -81.31177 | 28523 ft | 433 kts | 348° |
| 2026-05-07 18:54 | 29.11617 | -81.31509 | 29057 ft | 437 kts | 348° |
| 2026-05-07 18:54 | 29.14670 | -81.31749 | 29545 ft | 443 kts | 350° |
| 2026-05-07 18:54 | 29.17775 | -81.31925 | 30018 ft | 447 kts | 351° |
| 2026-05-07 18:55 | 29.20867 | -81.32080 | 30464 ft | 450 kts | 351° |
| 2026-05-07 18:55 | 29.24012 | -81.32240 | 30915 ft | 453 kts | 351° |
| 2026-05-07 18:55 | 29.27188 | -81.32411 | 31350 ft | 456 kts | 350° |
| 2026-05-07 18:55 | 29.30379 | -81.32593 | 31738 ft | 459 kts | 350° |
| 2026-05-07 18:56 | 29.33583 | -81.32783 | 32116 ft | 462 kts | 350° |
| 2026-05-07 18:56 | 29.36772 | -81.32975 | 32485 ft | 465 kts | 350° |
| 2026-05-07 18:56 | 29.40021 | -81.33172 | 32854 ft | 467 kts | 350° |
| 2026-05-07 18:56 | 29.43283 | -81.33369 | 33194 ft | 469 kts | 350° |
| 2026-05-07 18:57 | 29.46561 | -81.33567 | 33505 ft | 472 kts | 350° |
| 2026-05-07 18:57 | 29.49816 | -81.33763 | 33793 ft | 474 kts | 350° |
| 2026-05-07 18:57 | 29.53129 | -81.33963 | 34075 ft | 476 kts | 350° |
| 2026-05-07 18:57 | 29.56458 | -81.34163 | 34365 ft | 478 kts | 350° |
| 2026-05-07 18:58 | 29.59783 | -81.34363 | 34712 ft | 477 kts | 350° |
| 2026-05-07 18:58 | 29.63057 | -81.34559 | 35174 ft | 475 kts | 350° |
| 2026-05-07 18:58 | 29.66368 | -81.34755 | 35629 ft | 473 kts | 350° |
| 2026-05-07 18:58 | 29.69656 | -81.34945 | 36049 ft | 471 kts | 350° |
| 2026-05-07 18:59 | 29.72897 | -81.35129 | 36429 ft | 470 kts | 350° |
| 2026-05-07 18:59 | 29.76161 | -81.35314 | 36786 ft | 469 kts | 350° |
| 2026-05-07 18:59 | 29.79410 | -81.35498 | 37258 ft | 465 kts | 350° |
| 2026-05-07 18:59 | 29.82637 | -81.35680 | 37750 ft | 460 kts | 350° |
| 2026-05-07 19:00 | 29.85831 | -81.35861 | 38195 ft | 456 kts | 350° |
| 2026-05-07 19:00 | 29.88968 | -81.36042 | 38515 ft | 456 kts | 350° |
| 2026-05-07 19:00 | 29.92149 | -81.36227 | 38731 ft | 457 kts | 350° |
| 2026-05-07 19:00 | 29.95343 | -81.36414 | 38967 ft | 458 kts | 350° |
| 2026-05-07 19:01 | 29.98491 | -81.36596 | 39270 ft | 456 kts | 350° |
| 2026-05-07 19:01 | 30.01667 | -81.36779 | 39560 ft | 456 kts | 350° |
| 2026-05-07 19:01 | 30.04849 | -81.36962 | 39779 ft | 456 kts | 349° |
| 2026-05-07 19:01 | 30.07981 | -81.37143 | 40021 ft | 456 kts | 349° |
| 2026-05-07 19:02 | 30.11159 | -81.37327 | 40231 ft | 456 kts | 349° |
| 2026-05-07 19:02 | 30.14341 | -81.37511 | 40462 ft | 456 kts | 349° |
| 2026-05-07 19:02 | 30.17514 | -81.37694 | 40697 ft | 455 kts | 349° |
| 2026-05-07 19:02 | 30.20648 | -81.37875 | 40913 ft | 455 kts | 349° |
| 2026-05-07 19:03 | 30.23676 | -81.38051 | 40966 ft | 458 kts | 349° |
| 2026-05-07 19:03 | 30.30078 | -81.38424 | 41029 ft | 461 kts | 349° |
| 2026-05-07 19:04 | 30.36481 | -81.38794 | 41022 ft | 462 kts | 349° |
| 2026-05-07 19:04 | 30.42887 | -81.39165 | 41012 ft | 462 kts | 349° |
| 2026-05-07 19:05 | 30.49323 | -81.39531 | 41029 ft | 462 kts | 349° |
| 2026-05-07 19:05 | 30.55729 | -81.39871 | 41024 ft | 462 kts | 349° |
| 2026-05-07 19:06 | 30.62162 | -81.40208 | 41028 ft | 461 kts | 349° |
| 2026-05-07 19:06 | 30.71773 | -81.40720 | 41015 ft | 459 kts | 349° |
| 2026-05-07 19:07 | 30.78129 | -81.41061 | 41009 ft | 459 kts | 349° |
| 2026-05-07 19:07 | 30.84522 | -81.41405 | 41003 ft | 458 kts | 349° |
| 2026-05-07 19:08 | 30.90864 | -81.41746 | 40980 ft | 459 kts | 348° |
| 2026-05-07 19:08 | 30.97264 | -81.42091 | 40961 ft | 459 kts | 348° |
| 2026-05-07 19:09 | 31.03650 | -81.42435 | 40947 ft | 459 kts | 348° |
| 2026-05-07 19:09 | 31.10013 | -81.42778 | 40932 ft | 459 kts | 348° |
| 2026-05-07 19:10 | 31.16409 | -81.43124 | 40923 ft | 459 kts | 348° |
| 2026-05-07 19:10 | 31.22792 | -81.43221 | 40920 ft | 469 kts | 357° |
| 2026-05-07 19:11 | 31.29244 | -81.41517 | 40916 ft | 488 kts | 12° |
| 2026-05-07 19:11 | 31.35518 | -81.38207 | 40917 ft | 495 kts | 17° |
| 2026-05-07 19:12 | 31.41706 | -81.34698 | 40919 ft | 495 kts | 17° |
| 2026-05-07 19:12 | 31.47954 | -81.31240 | 40918 ft | 495 kts | 16° |
| 2026-05-07 19:13 | 31.54186 | -81.27848 | 40917 ft | 495 kts | 16° |
| 2026-05-07 19:13 | 31.60463 | -81.24431 | 40917 ft | 496 kts | 16° |
| 2026-05-07 19:14 | 31.66682 | -81.21033 | 40917 ft | 496 kts | 16° |
| 2026-05-07 19:14 | 31.72960 | -81.17598 | 40917 ft | 496 kts | 16° |
| 2026-05-07 19:15 | 31.79198 | -81.14182 | 40917 ft | 496 kts | 16° |
| 2026-05-07 19:15 | 31.85472 | -81.10739 | 40909 ft | 497 kts | 16° |
| 2026-05-07 19:16 | 31.91747 | -81.07290 | 40907 ft | 497 kts | 16° |
| 2026-05-07 19:16 | 31.97974 | -81.03863 | 40908 ft | 497 kts | 16° |
| 2026-05-07 19:17 | 32.04256 | -81.00385 | 40900 ft | 498 kts | 15° |
| 2026-05-07 19:17 | 32.10494 | -80.96892 | 40915 ft | 499 kts | 15° |
| 2026-05-07 19:18 | 32.16801 | -80.93353 | 40923 ft | 501 kts | 15° |
| 2026-05-07 19:18 | 32.23088 | -80.89824 | 40928 ft | 503 kts | 15° |
| 2026-05-07 19:19 | 32.29425 | -80.86262 | 40937 ft | 504 kts | 15° |
| 2026-05-07 19:19 | 32.35739 | -80.82709 | 40939 ft | 505 kts | 15° |
| 2026-05-07 19:20 | 32.42068 | -80.79141 | 40931 ft | 505 kts | 15° |
| 2026-05-07 19:20 | 32.48436 | -80.75545 | 40921 ft | 506 kts | 15° |
| 2026-05-07 19:21 | 32.54803 | -80.71944 | 40928 ft | 506 kts | 15° |
| 2026-05-07 19:21 | 32.61129 | -80.68360 | 40927 ft | 506 kts | 15° |
| 2026-05-07 19:22 | 32.67499 | -80.64712 | 40936 ft | 509 kts | 18° |
| 2026-05-07 19:22 | 32.73483 | -80.60085 | 40944 ft | 524 kts | 30° |
| 2026-05-07 19:23 | 32.78971 | -80.54211 | 40953 ft | 531 kts | 36° |
| 2026-05-07 19:23 | 32.84285 | -80.48161 | 40956 ft | 533 kts | 36° |
| 2026-05-07 19:24 | 32.89676 | -80.42057 | 40952 ft | 533 kts | 35° |
| 2026-05-07 19:24 | 32.95058 | -80.36031 | 40945 ft | 534 kts | 35° |
| 2026-05-07 19:25 | 33.00488 | -80.29971 | 40936 ft | 535 kts | 35° |
| 2026-05-07 19:25 | 33.05932 | -80.23882 | 40935 ft | 536 kts | 35° |
| 2026-05-07 19:26 | 33.11347 | -80.17810 | 40934 ft | 537 kts | 35° |
| 2026-05-07 19:26 | 33.16804 | -80.11676 | 40926 ft | 538 kts | 35° |
| 2026-05-07 19:27 | 33.22243 | -80.05552 | 40896 ft | 540 kts | 35° |
| 2026-05-07 19:27 | 33.27723 | -79.99371 | 40895 ft | 541 kts | 35° |
| 2026-05-07 19:28 | 33.33214 | -79.93165 | 40894 ft | 542 kts | 35° |
| 2026-05-07 19:28 | 33.38670 | -79.86987 | 40888 ft | 542 kts | 35° |
| 2026-05-07 19:29 | 33.44131 | -79.80794 | 40892 ft | 543 kts | 35° |
| 2026-05-07 19:29 | 33.49630 | -79.74546 | 40885 ft | 543 kts | 35° |
| 2026-05-07 19:30 | 33.55097 | -79.68323 | 40873 ft | 544 kts | 35° |
| 2026-05-07 19:30 | 33.60587 | -79.62063 | 40880 ft | 544 kts | 35° |
| 2026-05-07 19:31 | 33.63308 | -79.58955 | 40875 ft | 544 kts | 35° |
| 2026-05-07 19:31 | 33.66569 | -79.55227 | 40885 ft | 544 kts | 35° |
| 2026-05-07 19:32 | 33.70107 | -79.51178 | 40881 ft | 544 kts | 35° |
| 2026-05-07 19:32 | 33.75565 | -79.44922 | 40886 ft | 544 kts | 35° |
| 2026-05-07 19:33 | 33.81052 | -79.38622 | 40881 ft | 545 kts | 35° |
| 2026-05-07 19:33 | 33.86499 | -79.32357 | 40887 ft | 546 kts | 35° |
| 2026-05-07 19:34 | 33.92000 | -79.26017 | 40890 ft | 547 kts | 35° |
| 2026-05-07 19:34 | 33.97513 | -79.19649 | 40877 ft | 548 kts | 35° |
| 2026-05-07 19:35 | 34.02992 | -79.13309 | 40876 ft | 548 kts | 35° |
| 2026-05-07 19:35 | 34.08514 | -79.06911 | 40882 ft | 550 kts | 35° |
| 2026-05-07 19:36 | 34.14024 | -79.00512 | 40887 ft | 553 kts | 35° |
| 2026-05-07 19:36 | 34.19584 | -78.94042 | 40891 ft | 554 kts | 35° |
| 2026-05-07 19:37 | 34.25111 | -78.87597 | 40868 ft | 555 kts | 35° |
| 2026-05-07 19:37 | 34.30675 | -78.81094 | 40867 ft | 556 kts | 35° |
| 2026-05-07 19:38 | 34.36240 | -78.74581 | 40881 ft | 555 kts | 35° |
| 2026-05-07 19:38 | 34.41847 | -78.68251 | 40880 ft | 547 kts | 29° |
| 2026-05-07 19:39 | 34.47862 | -78.62634 | 40879 ft | 542 kts | 27° |
| 2026-05-07 19:39 | 34.52859 | -78.58121 | 40862 ft | 541 kts | 26° |
| 2026-05-07 19:40 | 34.59902 | -78.51690 | 40859 ft | 541 kts | 27° |
| 2026-05-07 19:40 | 34.65893 | -78.46139 | 40870 ft | 541 kts | 27° |
| 2026-05-07 19:41 | 34.71836 | -78.40605 | 40871 ft | 541 kts | 27° |
| 2026-05-07 19:41 | 34.77820 | -78.35027 | 40862 ft | 542 kts | 27° |
| 2026-05-07 19:42 | 34.83816 | -78.29432 | 40859 ft | 542 kts | 27° |
| 2026-05-07 19:42 | 34.88795 | -78.24780 | 40851 ft | 543 kts | 27° |
| 2026-05-07 19:43 | 34.95778 | -78.18242 | 40852 ft | 545 kts | 27° |
| 2026-05-07 19:43 | 35.00799 | -78.13532 | 40855 ft | 547 kts | 27° |
| 2026-05-07 19:44 | 35.06851 | -78.07844 | 40848 ft | 549 kts | 27° |
| 2026-05-07 19:44 | 35.12874 | -78.02172 | 40840 ft | 550 kts | 27° |
| 2026-05-07 19:45 | 35.18967 | -77.96424 | 40838 ft | 552 kts | 27° |
| 2026-05-07 19:45 | 35.25014 | -77.90704 | 40828 ft | 552 kts | 27° |
| 2026-05-07 19:46 | 35.31102 | -77.84937 | 40827 ft | 551 kts | 27° |
| 2026-05-07 19:46 | 35.37144 | -77.79203 | 40832 ft | 551 kts | 27° |
| 2026-05-07 19:47 | 35.43225 | -77.73420 | 40836 ft | 552 kts | 27° |
| 2026-05-07 19:47 | 35.49265 | -77.67664 | 40844 ft | 552 kts | 27° |
| 2026-05-07 19:48 | 35.55347 | -77.61859 | 40842 ft | 552 kts | 27° |
| 2026-05-07 19:48 | 35.61388 | -77.56088 | 40843 ft | 552 kts | 27° |
| 2026-05-07 19:49 | 35.67461 | -77.50279 | 40842 ft | 552 kts | 27° |
| 2026-05-07 19:49 | 35.73502 | -77.44487 | 40842 ft | 552 kts | 27° |
| 2026-05-07 19:50 | 35.79577 | -77.38650 | 40849 ft | 552 kts | 27° |
| 2026-05-07 19:50 | 35.85644 | -77.32807 | 40861 ft | 552 kts | 27° |
| 2026-05-07 19:51 | 35.91676 | -77.26998 | 40876 ft | 551 kts | 26° |
| 2026-05-07 19:51 | 35.97989 | -77.21800 | 40870 ft | 540 kts | 20° |
| 2026-05-07 19:52 | 36.04403 | -77.17051 | 40882 ft | 539 kts | 19° |
| 2026-05-07 19:52 | 36.10865 | -77.12273 | 40891 ft | 542 kts | 19° |
| 2026-05-07 19:53 | 36.17317 | -77.07423 | 40903 ft | 546 kts | 20° |
| 2026-05-07 19:53 | 36.23829 | -77.02480 | 40906 ft | 549 kts | 20° |
| 2026-05-07 19:54 | 36.30304 | -76.97548 | 40915 ft | 550 kts | 20° |
| 2026-05-07 19:54 | 36.36834 | -76.92571 | 40908 ft | 551 kts | 20° |
| 2026-05-07 19:55 | 36.43377 | -76.87578 | 40907 ft | 550 kts | 20° |
| 2026-05-07 19:55 | 36.49874 | -76.82610 | 40906 ft | 550 kts | 20° |
| 2026-05-07 19:56 | 36.56387 | -76.77621 | 40907 ft | 549 kts | 20° |
| 2026-05-07 19:56 | 36.62896 | -76.72625 | 40908 ft | 548 kts | 20° |
| 2026-05-07 19:57 | 36.69346 | -76.67665 | 40907 ft | 548 kts | 20° |
| 2026-05-07 19:57 | 36.75838 | -76.62664 | 40914 ft | 548 kts | 20° |
| 2026-05-07 19:58 | 36.82292 | -76.57682 | 40918 ft | 548 kts | 20° |
| 2026-05-07 19:58 | 36.88773 | -76.52668 | 40917 ft | 548 kts | 20° |
| 2026-05-07 19:59 | 36.95278 | -76.47626 | 40914 ft | 549 kts | 20° |
| 2026-05-07 19:59 | 37.01768 | -76.42585 | 40907 ft | 550 kts | 20° |
| 2026-05-07 20:00 | 37.08288 | -76.37510 | 40901 ft | 551 kts | 20° |
| 2026-05-07 20:00 | 37.14811 | -76.32422 | 40905 ft | 552 kts | 20° |
| 2026-05-07 20:01 | 37.21299 | -76.27350 | 40904 ft | 553 kts | 20° |
| 2026-05-07 20:01 | 37.27847 | -76.22221 | 40902 ft | 554 kts | 20° |
| 2026-05-07 20:02 | 37.34404 | -76.17075 | 40901 ft | 556 kts | 20° |
| 2026-05-07 20:02 | 37.40966 | -76.11913 | 40908 ft | 556 kts | 20° |
| 2026-05-07 20:03 | 37.47503 | -76.06760 | 40908 ft | 557 kts | 20° |
| 2026-05-07 20:03 | 37.54085 | -76.01560 | 40903 ft | 558 kts | 21° |
| 2026-05-07 20:04 | 37.60670 | -75.96348 | 40915 ft | 559 kts | 21° |
| 2026-05-07 20:04 | 37.67224 | -75.91001 | 40906 ft | 561 kts | 22° |
| 2026-05-07 20:05 | 37.73703 | -75.85581 | 40904 ft | 562 kts | 22° |
| 2026-05-07 20:05 | 37.80222 | -75.80130 | 40907 ft | 562 kts | 22° |
| 2026-05-07 20:06 | 37.86760 | -75.74680 | 40907 ft | 562 kts | 22° |
| 2026-05-07 20:06 | 37.93299 | -75.69225 | 40912 ft | 562 kts | 22° |
| 2026-05-07 20:07 | 37.99784 | -75.63802 | 40917 ft | 562 kts | 22° |
| 2026-05-07 20:07 | 38.06307 | -75.58333 | 40915 ft | 562 kts | 22° |
| 2026-05-07 20:08 | 38.12826 | -75.52854 | 40915 ft | 562 kts | 22° |
| 2026-05-07 20:08 | 38.19354 | -75.47357 | 40911 ft | 562 kts | 22° |
| 2026-05-07 20:09 | 38.26057 | -75.42526 | 40910 ft | 542 kts | 10° |
| 2026-05-07 20:10 | 38.36581 | -75.38692 | 40911 ft | 511 kts | 354° |
| 2026-05-07 20:10 | 38.43554 | -75.37332 | 40909 ft | 510 kts | 354° |
| 2026-05-07 20:11 | 38.50590 | -75.35928 | 40908 ft | 512 kts | 355° |
| 2026-05-07 20:11 | 38.57650 | -75.34441 | 40904 ft | 514 kts | 355° |
| 2026-05-07 20:12 | 38.64700 | -75.32937 | 40910 ft | 514 kts | 355° |
| 2026-05-07 20:12 | 38.71769 | -75.31424 | 40901 ft | 518 kts | 357° |
| 2026-05-07 20:12 | 38.75315 | -75.30328 | 40898 ft | 531 kts | 3° |
| 2026-05-07 20:13 | 38.78852 | -75.28783 | 40899 ft | 542 kts | 9° |
| 2026-05-07 20:13 | 38.82338 | -75.26800 | 40887 ft | 555 kts | 16° |
| 2026-05-07 20:13 | 38.85753 | -75.24438 | 40887 ft | 559 kts | 18° |
| 2026-05-07 20:14 | 38.92533 | -75.19452 | 40892 ft | 562 kts | 19° |
| 2026-05-07 20:14 | 38.99274 | -75.14523 | 40877 ft | 561 kts | 18° |
| 2026-05-07 20:15 | 39.06106 | -75.09633 | 40887 ft | 562 kts | 18° |
| 2026-05-07 20:15 | 39.12946 | -75.04753 | 40886 ft | 563 kts | 18° |
| 2026-05-07 20:16 | 39.19788 | -74.99844 | 40876 ft | 563 kts | 18° |
| 2026-05-07 20:16 | 39.26629 | -74.94847 | 40882 ft | 568 kts | 21° |
| 2026-05-07 20:17 | 39.33212 | -74.89051 | 40860 ft | 575 kts | 26° |
| 2026-05-07 20:17 | 39.39676 | -74.83027 | 40867 ft | 577 kts | 26° |
| 2026-05-07 20:18 | 39.46196 | -74.76978 | 40858 ft | 577 kts | 26° |
| 2026-05-07 20:18 | 39.52741 | -74.70973 | 40860 ft | 577 kts | 26° |
| 2026-05-07 20:19 | 39.59311 | -74.64956 | 40872 ft | 578 kts | 26° |
| 2026-05-07 20:19 | 39.65872 | -74.58926 | 40861 ft | 579 kts | 26° |
| 2026-05-07 20:20 | 39.72440 | -74.52867 | 40860 ft | 580 kts | 26° |
| 2026-05-07 20:20 | 39.79010 | -74.46791 | 40860 ft | 581 kts | 26° |
| 2026-05-07 20:21 | 39.85601 | -74.40682 | 40861 ft | 582 kts | 26° |
| 2026-05-07 20:21 | 39.92200 | -74.34549 | 40871 ft | 583 kts | 26° |
| 2026-05-07 20:22 | 39.98781 | -74.28419 | 40864 ft | 583 kts | 26° |
| 2026-05-07 20:22 | 40.05391 | -74.22247 | 40878 ft | 584 kts | 26° |
| 2026-05-07 20:23 | 40.11892 | -74.16150 | 40568 ft | 568 kts | 26° |
| 2026-05-07 20:23 | 40.15100 | -74.13142 | 39993 ft | 567 kts | 26° |
| 2026-05-07 20:23 | 40.18325 | -74.10124 | 39300 ft | 569 kts | 26° |
| 2026-05-07 20:23 | 40.21521 | -74.07131 | 38724 ft | 569 kts | 26° |
| 2026-05-07 20:24 | 40.24727 | -74.04117 | 38265 ft | 566 kts | 27° |
| 2026-05-07 20:24 | 40.27924 | -74.01102 | 37897 ft | 561 kts | 27° |
| 2026-05-07 20:24 | 40.31084 | -73.98120 | 37510 ft | 556 kts | 26° |
| 2026-05-07 20:24 | 40.34269 | -73.95290 | 37106 ft | 547 kts | 22° |
| 2026-05-07 20:25 | 40.37492 | -73.92884 | 36661 ft | 533 kts | 14° |
| 2026-05-07 20:25 | 40.40839 | -73.90805 | 36230 ft | 526 kts | 12° |
| 2026-05-07 20:25 | 40.44166 | -73.88822 | 35753 ft | 524 kts | 12° |
| 2026-05-07 20:25 | 40.47486 | -73.86848 | 35227 ft | 524 kts | 12° |
| 2026-05-07 20:26 | 40.50769 | -73.84865 | 34687 ft | 525 kts | 13° |
| 2026-05-07 20:26 | 40.53880 | -73.82953 | 34190 ft | 525 kts | 13° |
| 2026-05-07 20:26 | 40.57189 | -73.80899 | 33713 ft | 523 kts | 13° |
| 2026-05-07 20:26 | 40.60478 | -73.78852 | 33317 ft | 520 kts | 13° |
| 2026-05-07 20:27 | 40.63619 | -73.76552 | 32911 ft | 531 kts | 27° |
| 2026-05-07 20:27 | 40.66377 | -73.73217 | 32407 ft | 542 kts | 43° |
| 2026-05-07 20:27 | 40.68870 | -73.69478 | 31980 ft | 541 kts | 45° |
| 2026-05-07 20:27 | 40.71306 | -73.65685 | 31590 ft | 538 kts | 45° |
| 2026-05-07 20:28 | 40.73736 | -73.61933 | 31209 ft | 534 kts | 44° |
| 2026-05-07 20:28 | 40.76142 | -73.58309 | 30837 ft | 530 kts | 43° |
| 2026-05-07 20:28 | 40.78607 | -73.54675 | 30453 ft | 527 kts | 43° |
| 2026-05-07 20:28 | 40.81062 | -73.51093 | 30077 ft | 523 kts | 43° |
| 2026-05-07 20:29 | 40.83475 | -73.47566 | 29715 ft | 520 kts | 43° |
| 2026-05-07 20:29 | 40.85890 | -73.44017 | 29311 ft | 517 kts | 43° |
| 2026-05-07 20:29 | 40.88285 | -73.40484 | 28892 ft | 514 kts | 43° |
| 2026-05-07 20:29 | 40.90664 | -73.36968 | 28508 ft | 510 kts | 43° |
| 2026-05-07 20:30 | 40.92233 | -73.34647 | 28251 ft | 507 kts | 43° |
| 2026-05-07 20:30 | 40.94575 | -73.31180 | 27871 ft | 503 kts | 43° |
| 2026-05-07 20:30 | 40.97639 | -73.26640 | 27356 ft | 498 kts | 43° |
| 2026-05-07 20:30 | 40.99951 | -73.23210 | 26971 ft | 494 kts | 43° |
| 2026-05-07 20:31 | 41.02227 | -73.19830 | 26607 ft | 491 kts | 43° |
| 2026-05-07 20:31 | 41.04494 | -73.16462 | 26222 ft | 487 kts | 43° |
| 2026-05-07 20:31 | 41.05985 | -73.14244 | 25971 ft | 484 kts | 43° |
| 2026-05-07 20:31 | 41.08218 | -73.10917 | 25595 ft | 481 kts | 44° |
| 2026-05-07 20:32 | 41.10429 | -73.07621 | 25224 ft | 478 kts | 44° |
| 2026-05-07 20:32 | 41.12636 | -73.04326 | 24862 ft | 474 kts | 44° |
| 2026-05-07 20:32 | 41.14820 | -73.01065 | 24520 ft | 470 kts | 44° |
| 2026-05-07 20:32 | 41.16976 | -72.97838 | 24181 ft | 466 kts | 44° |
| 2026-05-07 20:33 | 41.19110 | -72.94623 | 23824 ft | 463 kts | 46° |
| 2026-05-07 20:33 | 41.21067 | -72.91212 | 23448 ft | 462 kts | 53° |
| 2026-05-07 20:33 | 41.22734 | -72.87641 | 23086 ft | 460 kts | 61° |
| 2026-05-07 20:33 | 41.24195 | -72.83876 | 22743 ft | 456 kts | 63° |
| 2026-05-07 20:34 | 41.25603 | -72.80124 | 22509 ft | 450 kts | 63° |
| 2026-05-07 20:34 | 41.26982 | -72.76427 | 22398 ft | 444 kts | 63° |
| 2026-05-07 20:34 | 41.28358 | -72.72754 | 22292 ft | 446 kts | 63° |
| 2026-05-07 20:34 | 41.29756 | -72.69047 | 22194 ft | 449 kts | 63° |
| 2026-05-07 20:35 | 41.31167 | -72.65326 | 22094 ft | 450 kts | 63° |
| 2026-05-07 20:35 | 41.32576 | -72.61617 | 21988 ft | 448 kts | 63° |
| 2026-05-07 20:35 | 41.33973 | -72.57940 | 21853 ft | 445 kts | 62° |
| 2026-05-07 20:35 | 41.35366 | -72.54271 | 21763 ft | 442 kts | 62° |
| 2026-05-07 20:36 | 41.36750 | -72.50625 | 21659 ft | 439 kts | 62° |
| 2026-05-07 20:36 | 41.38104 | -72.47047 | 21551 ft | 437 kts | 62° |
| 2026-05-07 20:36 | 41.39469 | -72.43437 | 21456 ft | 435 kts | 62° |
| 2026-05-07 20:36 | 41.40828 | -72.39839 | 21366 ft | 434 kts | 63° |
| 2026-05-07 20:37 | 41.42188 | -72.36230 | 21262 ft | 435 kts | 63° |
| 2026-05-07 20:37 | 41.43546 | -72.32627 | 21148 ft | 435 kts | 63° |
| 2026-05-07 20:37 | 41.44902 | -72.29024 | 21056 ft | 435 kts | 63° |
| 2026-05-07 20:37 | 41.46259 | -72.25414 | 20951 ft | 436 kts | 63° |
| 2026-05-07 20:38 | 41.47620 | -72.21788 | 20848 ft | 436 kts | 63° |
| 2026-05-07 20:38 | 41.48957 | -72.18197 | 20596 ft | 440 kts | 63° |
| 2026-05-07 20:38 | 41.50299 | -72.14530 | 20270 ft | 436 kts | 63° |
| 2026-05-07 20:38 | 41.51621 | -72.10897 | 19959 ft | 431 kts | 63° |
| 2026-05-07 20:39 | 41.52925 | -72.07320 | 19657 ft | 425 kts | 63° |
| 2026-05-07 20:39 | 41.54214 | -72.03786 | 19355 ft | 420 kts | 63° |
| 2026-05-07 20:39 | 41.55469 | -72.00336 | 19064 ft | 415 kts | 64° |
| 2026-05-07 20:39 | 41.56610 | -71.96811 | 18778 ft | 410 kts | 68° |
| 2026-05-07 20:40 | 41.57648 | -71.93292 | 18489 ft | 405 kts | 69° |
| 2026-05-07 20:40 | 41.58669 | -71.89806 | 18215 ft | 400 kts | 69° |
| 2026-05-07 20:40 | 41.59687 | -71.86369 | 17922 ft | 395 kts | 69° |
| 2026-05-07 20:40 | 41.60685 | -71.83002 | 17644 ft | 391 kts | 69° |
| 2026-05-07 20:41 | 41.61680 | -71.79633 | 17384 ft | 388 kts | 69° |
| 2026-05-07 20:41 | 41.62670 | -71.76279 | 17113 ft | 387 kts | 69° |
| 2026-05-07 20:41 | 41.63662 | -71.72914 | 16900 ft | 387 kts | 69° |
| 2026-05-07 20:41 | 41.64647 | -71.69568 | 16755 ft | 388 kts | 69° |
| 2026-05-07 20:42 | 41.65642 | -71.66186 | 16502 ft | 391 kts | 69° |
| 2026-05-07 20:42 | 41.66625 | -71.62837 | 16233 ft | 390 kts | 69° |
| 2026-05-07 20:42 | 41.67614 | -71.59465 | 15973 ft | 388 kts | 69° |
| 2026-05-07 20:42 | 41.68599 | -71.56101 | 15703 ft | 386 kts | 69° |
| 2026-05-07 20:43 | 41.69579 | -71.52751 | 15425 ft | 384 kts | 69° |
| 2026-05-07 20:43 | 41.70551 | -71.49429 | 15160 ft | 381 kts | 69° |
| 2026-05-07 20:43 | 41.71502 | -71.46171 | 14897 ft | 378 kts | 69° |
| 2026-05-07 20:43 | 41.72471 | -71.42906 | 14633 ft | 375 kts | 66° |
| 2026-05-07 20:44 | 41.73660 | -71.39818 | 14372 ft | 371 kts | 58° |
| 2026-05-07 20:44 | 41.74990 | -71.36860 | 14115 ft | 368 kts | 57° |
| 2026-05-07 20:44 | 41.76308 | -71.33926 | 13862 ft | 366 kts | 58° |
| 2026-05-07 20:44 | 41.76653 | -71.33142 | 13795 ft | 366 kts | 58° |
| 2026-05-07 20:45 | 41.77749 | -71.30615 | 13584 ft | 364 kts | 59° |
| 2026-05-07 20:45 | 41.79010 | -71.27666 | 13321 ft | 362 kts | 59° |
| 2026-05-07 20:45 | 41.80260 | -71.24728 | 13062 ft | 361 kts | 59° |
| 2026-05-07 20:45 | 41.81484 | -71.21850 | 12813 ft | 359 kts | 59° |
| 2026-05-07 20:46 | 41.82725 | -71.18929 | 12562 ft | 358 kts | 59° |
| 2026-05-07 20:46 | 41.83958 | -71.16027 | 12303 ft | 357 kts | 59° |
| 2026-05-07 20:46 | 41.85185 | -71.13139 | 12056 ft | 355 kts | 59° |
| 2026-05-07 20:46 | 41.86396 | -71.10303 | 11830 ft | 353 kts | 59° |
| 2026-05-07 20:47 | 41.87625 | -71.07460 | 11610 ft | 350 kts | 59° |
| 2026-05-07 20:47 | 41.88849 | -71.04634 | 11403 ft | 348 kts | 59° |
| 2026-05-07 20:47 | 41.90064 | -71.01823 | 11185 ft | 346 kts | 59° |
| 2026-05-07 20:47 | 41.91267 | -70.99038 | 10981 ft | 343 kts | 58° |
| 2026-05-07 20:48 | 41.92458 | -70.96275 | 10771 ft | 340 kts | 58° |
| 2026-05-07 20:48 | 41.93624 | -70.93568 | 10560 ft | 337 kts | 58° |
| 2026-05-07 20:48 | 41.94796 | -70.90845 | 10361 ft | 334 kts | 58° |
| 2026-05-07 20:48 | 41.95955 | -70.88153 | 10153 ft | 330 kts | 58° |
| 2026-05-07 20:49 | 41.97091 | -70.85506 | 9941 ft | 323 kts | 58° |
| 2026-05-07 20:49 | 41.98203 | -70.82911 | 9755 ft | 316 kts | 58° |
| 2026-05-07 20:49 | 41.99293 | -70.80368 | 9557 ft | 311 kts | 58° |
| 2026-05-07 20:49 | 42.00356 | -70.77888 | 9375 ft | 309 kts | 58° |
| 2026-05-07 20:50 | 42.01482 | -70.75457 | 9182 ft | 302 kts | 49° |
| 2026-05-07 20:50 | 42.02845 | -70.73336 | 9005 ft | 296 kts | 43° |
| 2026-05-07 20:50 | 42.04263 | -70.71332 | 8826 ft | 293 kts | 43° |
| 2026-05-07 20:50 | 42.05655 | -70.69340 | 8652 ft | 291 kts | 44° |
| 2026-05-07 20:51 | 42.07004 | -70.67356 | 8487 ft | 289 kts | 44° |
| 2026-05-07 20:51 | 42.08354 | -70.65344 | 8304 ft | 288 kts | 44° |
| 2026-05-07 20:51 | 42.09700 | -70.63333 | 8134 ft | 287 kts | 44° |
| 2026-05-07 20:51 | 42.11242 | -70.61711 | 7928 ft | 281 kts | 19° |
| 2026-05-07 20:52 | 42.13103 | -70.61053 | 7715 ft | 275 kts | 4° |
| 2026-05-07 20:52 | 42.14993 | -70.60667 | 7472 ft | 277 kts | 4° |
| 2026-05-07 20:52 | 42.16899 | -70.60279 | 7228 ft | 276 kts | 4° |
| 2026-05-07 20:52 | 42.18794 | -70.59891 | 6983 ft | 274 kts | 4° |
| 2026-05-07 20:53 | 42.20646 | -70.59507 | 6750 ft | 270 kts | 4° |
| 2026-05-07 20:53 | 42.22496 | -70.59121 | 6508 ft | 267 kts | 4° |
| 2026-05-07 20:53 | 42.24334 | -70.58733 | 6273 ft | 265 kts | 4° |
| 2026-05-07 20:53 | 42.26147 | -70.58348 | 6047 ft | 262 kts | 4° |
| 2026-05-07 20:54 | 42.27925 | -70.57970 | 5831 ft | 260 kts | 4° |
| 2026-05-07 20:54 | 42.29705 | -70.57589 | 5595 ft | 256 kts | 4° |
| 2026-05-07 20:54 | 42.31454 | -70.57213 | 5365 ft | 251 kts | 5° |
| 2026-05-07 20:54 | 42.33107 | -70.56855 | 5138 ft | 231 kts | 4° |
| 2026-05-07 20:55 | 42.34671 | -70.56526 | 5077 ft | 226 kts | 1° |
| 2026-05-07 20:55 | 42.36163 | -70.56838 | 5010 ft | 215 kts | 327° |
| 2026-05-07 20:55 | 42.37248 | -70.58161 | 5008 ft | 209 kts | 303° |
| 2026-05-07 20:55 | 42.38004 | -70.59823 | 5006 ft | 210 kts | 298° |
| 2026-05-07 20:56 | 42.38721 | -70.61557 | 5009 ft | 211 kts | 298° |
| 2026-05-07 20:56 | 42.39439 | -70.63297 | 5004 ft | 211 kts | 298° |
| 2026-05-07 20:56 | 42.40162 | -70.65036 | 4995 ft | 212 kts | 298° |
| 2026-05-07 20:56 | 42.40869 | -70.66754 | 4992 ft | 208 kts | 294° |
| 2026-05-07 20:57 | 42.41096 | -70.68634 | 4996 ft | 203 kts | 266° |
| 2026-05-07 20:57 | 42.40909 | -70.70584 | 5011 ft | 212 kts | 263° |
| 2026-05-07 20:57 | 42.40636 | -70.72552 | 4966 ft | 213 kts | 259° |
| 2026-05-07 20:57 | 42.40309 | -70.74487 | 4749 ft | 213 kts | 259° |
| 2026-05-07 20:58 | 42.39965 | -70.76432 | 4502 ft | 212 kts | 259° |
| 2026-05-07 20:58 | 42.39618 | -70.78398 | 4109 ft | 217 kts | 259° |
| 2026-05-07 20:58 | 42.39262 | -70.80419 | 3672 ft | 225 kts | 258° |
| 2026-05-07 20:58 | 42.38898 | -70.82480 | 3242 ft | 231 kts | 259° |
| 2026-05-07 20:59 | 42.38517 | -70.84634 | 2790 ft | 237 kts | 259° |
| 2026-05-07 20:59 | 42.38139 | -70.86773 | 2218 ft | 229 kts | 259° |
| 2026-05-07 20:59 | 42.37775 | -70.88834 | 1671 ft | 221 kts | 259° |
| 2026-05-07 20:59 | 42.37435 | -70.90765 | 1218 ft | 203 kts | 259° |
| 2026-05-07 21:00 | 42.37115 | -70.92585 | 954 ft | 193 kts | 259° |
| 2026-05-07 21:00 | 42.36815 | -70.94281 | 734 ft | 177 kts | 259° |
| 2026-05-07 21:00 | 42.36539 | -70.95835 | 525 ft | 163 kts | 259° |
| 2026-05-07 21:00 | 42.36288 | -70.97241 | 305 ft | 141 kts | 259° |
| 2026-05-07 21:01 | 42.36074 | -70.98414 | 102 ft | 118 kts | 258° |
| 2026-05-07 21:01 | 42.35904 | -70.99421 | 30 ft | 103 kts | 257° |
| 2026-05-07 21:01 | 42.35760 | -71.00267 | 30 ft | 69 kts | 256° |
| 2026-05-07 21:01 | 42.35666 | -71.00788 | 30 ft | 39 kts | 256° |
| 2026-05-07 21:02 | 42.35653 | -71.01108 | 30 ft | 38 kts | 291° |
| 2026-05-07 21:02 | 42.35752 | -71.01351 | 30 ft | 33 kts | 293° |
| 2026-05-07 21:02 | 42.35844 | -71.01560 | 30 ft | 25 kts | 342° |
| 2026-05-07 21:02 | 42.36009 | -71.01556 | 30 ft | 24 kts | 315° |
| 2026-05-07 21:03 | 42.36038 | -71.01677 | 30 ft | 2 kts | 287° |
| 2026-05-07 21:03 | 42.36039 | -71.01683 | 30 ft | 3 kts | 288° |
| 2026-05-07 21:03 | 42.36042 | -71.01694 | 30 ft | 0 kts | 288° |